Time;durP1;ratioP1;P1;durP2;ratioP2;P2;SDS_P1;SDS_P2;PMS_P1;PMS_P2;Temp;Humidity;BMP_temperature;BMP_pressure;BME280_temperature;BME280_humidity;BME280_pressure;Samples;Min_cycle;Max_cycle;Signal;HPM_P1;HPM_P2
2023/05/16 00:01:17;;;;;;;20.33;3.70;;;;;;;;;;5034785;28;20240;-88
2023/05/16 00:03:43;;;;;;;16.30;3.60;;;;;;;;;;5018364;28;20187;-88
2023/05/16 00:06:09;;;;;;;16.77;3.63;;;;;;;;;;5058810;28;20258;-88
2023/05/16 00:08:35;;;;;;;16.43;3.77;;;;;;;;;;5054913;28;20190;-88
2023/05/16 00:11:02;;;;;;;15.10;3.87;;;;;;;;;;5046835;28;20183;-88
2023/05/16 00:13:29;;;;;;;14.37;3.77;;;;;;;;;;5068884;28;20583;-87
2023/05/16 00:15:55;;;;;;;15.40;3.70;;;;;;;;;;5034145;28;20303;-79
2023/05/16 00:18:22;;;;;;;16.30;3.63;;;;;;;;;;5029721;28;20186;-79
2023/05/16 00:20:50;;;;;;;12.83;3.30;;;;;;;;;;5075118;28;20194;-79
2023/05/16 00:23:16;;;;;;;16.40;3.23;;;;;;;;;;5057472;28;20179;-79
2023/05/16 00:25:42;;;;;;;15.83;3.47;;;;;;;;;;5040881;28;20191;-79
2023/05/16 00:28:08;;;;;;;17.07;3.87;;;;;;;;;;5057308;28;20187;-79
2023/05/16 00:30:35;;;;;;;12.20;3.07;;;;;;;;;;5033368;28;20180;-82
2023/05/16 00:33:01;;;;;;;22.17;3.60;;;;;;;;;;5020829;28;20184;-82
2023/05/16 00:35:27;;;;;;;16.67;3.40;;;;;;;;;;5037015;28;20211;-82
2023/05/16 00:37:53;;;;;;;16.87;3.97;;;;;;;;;;5037668;28;20172;-82
2023/05/16 00:40:20;;;;;;;16.97;3.57;;;;;;;;;;5037299;28;20176;-82
2023/05/16 00:42:46;;;;;;;16.67;4.00;;;;;;;;;;5036845;28;20411;-82
2023/05/16 00:45:12;;;;;;;15.02;3.88;;;;;;;;;;5036294;28;20400;-82
2023/05/16 00:47:38;;;;;;;18.90;3.97;;;;;;;;;;5020199;28;20414;-82
2023/05/16 00:50:05;;;;;;;17.55;4.35;;;;;;;;;;5019916;28;20412;-83
2023/05/16 00:52:32;;;;;;;15.25;4.00;;;;;;;;;;5019594;28;20408;-83
2023/05/16 00:54:58;;;;;;;13.05;3.72;;;;;;;;;;5053497;28;20423;-82
2023/05/16 00:57:24;;;;;;;17.20;3.97;;;;;;;;;;5036133;28;20408;-82
2023/05/16 00:59:51;;;;;;;15.25;3.85;;;;;;;;;;5036024;28;20399;-82
2023/05/16 01:02:17;;;;;;;18.67;4.07;;;;;;;;;;5036094;28;20411;-82
2023/05/16 01:04:43;;;;;;;19.80;4.20;;;;;;;;;;5035934;28;20510;-78
2023/05/16 01:07:09;;;;;;;17.92;4.03;;;;;;;;;;5044490;28;20431;-78
2023/05/16 01:09:35;;;;;;;13.93;3.77;;;;;;;;;;5019307;28;20416;-79
2023/05/16 01:12:08;;;;;;;15.02;4.03;;;;;;;;;;5019331;28;20440;-79
2023/05/16 01:14:53;;;;;;;17.38;3.90;;;;;;;;;;5040282;28;20445;-78
2023/05/16 01:17:38;;;;;;;18.42;4.30;;;;;;;;;;5050400;28;20418;-79
2023/05/16 01:20:18;;;;;;;15.95;3.85;;;;;;;;;;5053587;28;20475;-78
2023/05/16 01:22:44;;;;;;;16.50;4.00;;;;;;;;;;5054351;28;20429;-80
2023/05/16 01:25:10;;;;;;;17.75;3.80;;;;;;;;;;5072389;28;20507;-80
2023/05/16 01:27:38;;;;;;;14.02;3.85;;;;;;;;;;5051660;28;20505;-80
2023/05/16 01:30:14;;;;;;;14.43;3.70;;;;;;;;;;5048856;28;20428;-80
2023/05/16 01:32:40;;;;;;;16.20;4.03;;;;;;;;;;5030675;28;20426;-81
2023/05/16 01:35:08;;;;;;;16.98;3.78;;;;;;;;;;5034627;28;20460;-80
2023/05/16 01:37:40;;;;;;;18.95;3.53;;;;;;;;;;5037034;28;20572;-88
2023/05/16 01:40:07;;;;;;;17.50;3.83;;;;;;;;;;5051297;28;20429;-87
2023/05/16 01:42:34;;;;;;;14.63;3.63;;;;;;;;;;5063189;28;20414;-88
2023/05/16 01:45:18;;;;;;;15.73;3.90;;;;;;;;;;5065725;28;20436;-87
2023/05/16 01:47:45;;;;;;;16.23;3.60;;;;;;;;;;5068934;28;20436;-87
2023/05/16 01:50:16;;;;;;;14.27;3.20;;;;;;;;;;5052759;28;20422;-87
2023/05/16 01:52:49;;;;;;;16.55;3.55;;;;;;;;;;5039083;28;20468;-88
2023/05/16 01:55:18;;;;;;;17.08;3.70;;;;;;;;;;5052409;28;20434;-78
2023/05/16 01:57:45;;;;;;;12.82;3.22;;;;;;;;;;5053142;28;20473;-78
2023/05/16 02:00:12;;;;;;;14.15;3.80;;;;;;;;;;5035376;28;20423;-78
2023/05/16 02:02:38;;;;;;;15.97;3.50;;;;;;;;;;5052882;28;20518;-79
2023/05/16 02:05:04;;;;;;;15.63;3.65;;;;;;;;;;5036493;28;20565;-78
2023/05/16 02:07:30;;;;;;;16.88;3.25;;;;;;;;;;5039259;28;20434;-78
2023/05/16 02:09:56;;;;;;;18.85;3.47;;;;;;;;;;5051227;28;20460;-79
2023/05/16 02:12:22;;;;;;;14.40;3.50;;;;;;;;;;5044238;28;20410;-87
2023/05/16 02:14:48;;;;;;;15.57;3.50;;;;;;;;;;5038472;28;20306;-87
2023/05/16 02:17:14;;;;;;;13.20;3.45;;;;;;;;;;5067515;28;20426;-87
2023/05/16 02:19:40;;;;;;;15.98;3.50;;;;;;;;;;5035476;28;20408;-87
2023/05/16 02:22:06;;;;;;;13.57;2.97;;;;;;;;;;5036337;28;20188;-88
2023/05/16 02:24:32;;;;;;;14.03;3.10;;;;;;;;;;5035970;28;20206;-88
2023/05/16 02:26:58;;;;;;;15.20;2.90;;;;;;;;;;5036219;28;20211;-88
2023/05/16 02:29:24;;;;;;;13.27;2.77;;;;;;;;;;5055435;28;20187;-87
2023/05/16 02:31:50;;;;;;;16.17;3.23;;;;;;;;;;5039429;28;20179;-88
2023/05/16 02:34:16;;;;;;;14.90;3.20;;;;;;;;;;5055702;28;20179;-88
2023/05/16 02:36:42;;;;;;;16.07;3.70;;;;;;;;;;5042999;28;20451;-86
2023/05/16 02:39:09;;;;;;;16.33;3.65;;;;;;;;;;5018675;28;20419;-88
2023/05/16 02:41:35;;;;;;;14.27;3.53;;;;;;;;;;5021562;28;20408;-87
2023/05/16 02:44:01;;;;;;;15.30;3.45;;;;;;;;;;5052580;28;20558;-81
2023/05/16 02:46:31;;;;;;;14.00;3.60;;;;;;;;;;5040011;28;20412;-80
2023/05/16 02:48:58;;;;;;;17.15;3.53;;;;;;;;;;5041789;28;20439;-80
2023/05/16 02:51:25;;;;;;;18.05;3.85;;;;;;;;;;5048873;28;20534;-80
2023/05/16 02:53:51;;;;;;;18.95;3.50;;;;;;;;;;5039085;28;20424;-80
2023/05/16 02:56:18;;;;;;;18.13;3.75;;;;;;;;;;5055137;28;20435;-81
2023/05/16 02:58:47;;;;;;;16.13;3.60;;;;;;;;;;5042625;28;20396;-80
2023/05/16 03:01:13;;;;;;;14.43;3.45;;;;;;;;;;5055110;28;20505;-81
2023/05/16 03:03:39;;;;;;;16.60;3.33;;;;;;;;;;5055308;28;20404;-82
2023/05/16 03:06:05;;;;;;;16.70;3.53;;;;;;;;;;5039451;28;20436;-82
2023/05/16 03:08:31;;;;;;;14.43;3.55;;;;;;;;;;5028569;28;20409;-82
2023/05/16 03:10:57;;;;;;;18.13;3.60;;;;;;;;;;5018559;28;20443;-82
2023/05/16 03:13:23;;;;;;;19.33;3.63;;;;;;;;;;5029161;28;20447;-81
2023/05/16 03:15:49;;;;;;;17.95;4.10;;;;;;;;;;5039601;28;20431;-81
2023/05/16 03:18:15;;;;;;;17.00;3.67;;;;;;;;;;5033593;28;20420;-78
2023/05/16 03:20:41;;;;;;;14.82;3.88;;;;;;;;;;5037140;28;20412;-78
2023/05/16 03:23:07;;;;;;;17.63;3.60;;;;;;;;;;5021800;28;20453;-82
2023/05/16 03:25:35;;;;;;;20.08;4.10;;;;;;;;;;5038220;28;20411;-81
2023/05/16 03:28:01;;;;;;;15.18;3.67;;;;;;;;;;5050681;28;20431;-82
2023/05/16 03:30:27;;;;;;;14.50;3.75;;;;;;;;;;5038113;28;20408;-82
2023/05/16 03:32:53;;;;;;;15.60;3.70;;;;;;;;;;5038091;28;20587;-82
2023/05/16 03:35:19;;;;;;;18.88;3.72;;;;;;;;;;5054837;28;20440;-80
2023/05/16 03:37:45;;;;;;;14.95;3.42;;;;;;;;;;5038692;28;20415;-81
2023/05/16 03:40:11;;;;;;;14.07;3.33;;;;;;;;;;5038882;28;20270;-80
2023/05/16 03:42:37;;;;;;;13.47;2.90;;;;;;;;;;5055195;28;20190;-81
2023/05/16 03:45:07;;;;;;;15.20;3.63;;;;;;;;;;5021360;28;20502;-81
2023/05/16 03:47:33;;;;;;;17.23;4.00;;;;;;;;;;5042021;28;20411;-80
2023/05/16 03:49:59;;;;;;;15.77;3.67;;;;;;;;;;5049788;28;20475;-78
2023/05/16 03:52:25;;;;;;;16.23;3.38;;;;;;;;;;5054929;28;20404;-78
2023/05/16 03:54:51;;;;;;;13.87;3.20;;;;;;;;;;5021877;28;20208;-78
2023/05/16 03:57:17;;;;;;;14.37;2.93;;;;;;;;;;5022131;28;20168;-79
2023/05/16 03:59:43;;;;;;;15.43;3.13;;;;;;;;;;5038354;28;20457;-78
2023/05/16 04:02:09;;;;;;;16.92;4.00;;;;;;;;;;5021067;28;20408;-78
2023/05/16 04:04:35;;;;;;;14.50;3.47;;;;;;;;;;5037558;28;20396;-78
2023/05/16 04:07:02;;;;;;;15.85;3.60;;;;;;;;;;5035859;28;20430;-78
2023/05/16 04:09:28;;;;;;;15.95;3.50;;;;;;;;;;5017930;28;20406;-78
2023/05/16 04:11:57;;;;;;;12.27;3.33;;;;;;;;;;5001725;28;20501;-78
2023/05/16 04:14:24;;;;;;;16.77;3.40;;;;;;;;;;5002235;28;20429;-78
2023/05/16 04:16:50;;;;;;;13.38;3.20;;;;;;;;;;5001092;28;20406;-78
2023/05/16 04:19:16;;;;;;;15.33;3.43;;;;;;;;;;5002228;28;20181;-78
2023/05/16 04:21:42;;;;;;;15.87;3.93;;;;;;;;;;5017408;28;20401;-78
2023/05/16 04:24:08;;;;;;;16.10;3.72;;;;;;;;;;5001128;28;20433;-80
2023/05/16 04:26:34;;;;;;;16.40;3.20;;;;;;;;;;5001942;28;20188;-80
2023/05/16 04:29:00;;;;;;;11.80;3.13;;;;;;;;;;5001734;28;20219;-81
2023/05/16 04:31:26;;;;;;;16.43;3.20;;;;;;;;;;5001662;28;20185;-80
2023/05/16 04:33:52;;;;;;;14.93;3.17;;;;;;;;;;5001540;28;20248;-80
2023/05/16 04:36:20;;;;;;;11.97;2.80;;;;;;;;;;5017537;28;20207;-80
2023/05/16 04:38:46;;;;;;;11.63;3.00;;;;;;;;;;5017591;28;20172;-81
2023/05/16 04:41:12;;;;;;;13.70;3.30;;;;;;;;;;5035936;28;20227;-87
2023/05/16 04:43:39;;;;;;;15.70;3.20;;;;;;;;;;5003053;28;20173;-88
2023/05/16 04:46:08;;;;;;;15.27;2.83;;;;;;;;;;5019617;28;20319;-88
2023/05/16 04:48:34;;;;;;;10.23;2.97;;;;;;;;;;5019952;28;20183;-87
2023/05/16 04:51:00;;;;;;;14.03;3.10;;;;;;;;;;5021535;28;20176;-88
2023/05/16 04:53:27;;;;;;;16.03;3.27;;;;;;;;;;5021135;28;20193;-88
2023/05/16 04:55:53;;;;;;;14.13;3.03;;;;;;;;;;5012070;28;20291;-90
2023/05/16 04:58:19;;;;;;;14.43;3.33;;;;;;;;;;5021977;28;20237;-81
2023/05/16 05:00:46;;;;;;;16.03;3.10;;;;;;;;;;5009803;28;20181;-80
2023/05/16 05:03:12;;;;;;;18.40;3.40;;;;;;;;;;5016010;28;20199;-80
2023/05/16 05:05:38;;;;;;;14.05;3.80;;;;;;;;;;5043997;28;20438;-80
2023/05/16 05:08:05;;;;;;;14.82;4.00;;;;;;;;;;5047491;28;20413;-80
2023/05/16 05:10:31;;;;;;;14.93;3.97;;;;;;;;;;5029660;28;20450;-80
2023/05/16 05:12:57;;;;;;;13.18;3.63;;;;;;;;;;5036173;28;20411;-80
2023/05/16 05:15:23;;;;;;;14.30;4.10;;;;;;;;;;5020066;28;20523;-78
2023/05/16 05:17:49;;;;;;;15.43;4.22;;;;;;;;;;5019880;28;20404;-78
2023/05/16 05:20:15;;;;;;;13.38;3.78;;;;;;;;;;5020205;28;20396;-78
2023/05/16 05:22:41;;;;;;;11.20;3.58;;;;;;;;;;5037027;28;20484;-78
2023/05/16 05:25:08;;;;;;;15.48;3.95;;;;;;;;;;5054004;28;20415;-78
2023/05/16 05:27:34;;;;;;;17.13;3.97;;;;;;;;;;5019938;28;20405;-78
2023/05/16 05:30:00;;;;;;;11.13;3.38;;;;;;;;;;5020151;28;20423;-78
2023/05/16 05:32:26;;;;;;;13.77;3.40;;;;;;;;;;5025746;28;20419;-89
2023/05/16 05:34:52;;;;;;;12.57;3.35;;;;;;;;;;5024830;28;20429;-89
2023/05/16 05:37:18;;;;;;;14.70;3.45;;;;;;;;;;5026224;28;20470;-88
2023/05/16 05:39:44;;;;;;;13.85;3.30;;;;;;;;;;5053084;28;20457;-88
2023/05/16 05:42:11;;;;;;;11.80;3.85;;;;;;;;;;5017342;28;20444;-87
2023/05/16 05:44:37;;;;;;;14.90;3.63;;;;;;;;;;5051281;28;20423;-89
2023/05/16 05:47:03;;;;;;;14.65;3.90;;;;;;;;;;5036645;28;20436;-88
2023/05/16 05:49:30;;;;;;;15.77;3.60;;;;;;;;;;5036052;28;20423;-81
2023/05/16 05:51:56;;;;;;;11.90;3.30;;;;;;;;;;5053723;28;20400;-81
2023/05/16 05:54:23;;;;;;;13.65;3.30;;;;;;;;;;5036011;28;20423;-81
2023/05/16 05:56:49;;;;;;;12.75;3.20;;;;;;;;;;5053626;28;20416;-81
2023/05/16 05:59:15;;;;;;;14.07;3.70;;;;;;;;;;5032928;28;20424;-82
2023/05/16 06:01:43;;;;;;;11.05;2.92;;;;;;;;;;5017921;28;20431;-82
2023/05/16 06:04:09;;;;;;;12.77;3.40;;;;;;;;;;5027950;28;20462;-88
2023/05/16 06:06:35;;;;;;;11.75;3.10;;;;;;;;;;5019322;28;20468;-87
2023/05/16 06:09:01;;;;;;;15.05;3.38;;;;;;;;;;5053619;28;20442;-86
2023/05/16 06:11:27;;;;;;;11.00;3.22;;;;;;;;;;5020791;28;20474;-87
2023/05/16 06:13:53;;;;;;;12.85;3.35;;;;;;;;;;5036076;28;20462;-86
2023/05/16 06:16:23;;;;;;;16.27;3.60;;;;;;;;;;5038182;28;20435;-87
2023/05/16 06:18:50;;;;;;;13.43;3.20;;;;;;;;;;5040797;28;20400;-87
2023/05/16 06:21:16;;;;;;;12.23;3.17;;;;;;;;;;5040351;28;20419;-82
2023/05/16 06:23:42;;;;;;;13.05;3.10;;;;;;;;;;5040010;28;20400;-81
2023/05/16 06:26:08;;;;;;;13.85;3.40;;;;;;;;;;5039870;28;20511;-81
2023/05/16 06:28:34;;;;;;;15.67;3.17;;;;;;;;;;5029398;28;20188;-82
2023/05/16 06:31:00;;;;;;;7.57;2.20;;;;;;;;;;5013018;28;20237;-81
2023/05/16 06:33:26;;;;;;;10.43;2.37;;;;;;;;;;5023900;28;20198;-81
2023/05/16 06:35:52;;;;;;;12.40;2.80;;;;;;;;;;5024221;28;20297;-82
2023/05/16 06:38:18;;;;;;;10.77;3.03;;;;;;;;;;5027120;28;20184;-87
2023/05/16 06:40:45;;;;;;;12.40;2.83;;;;;;;;;;5044823;28;20184;-87
2023/05/16 06:43:11;;;;;;;10.07;2.60;;;;;;;;;;5033523;28;20184;-89
2023/05/16 06:45:37;;;;;;;9.33;2.80;;;;;;;;;;5024880;28;20184;-89
2023/05/16 06:48:04;;;;;;;11.30;2.70;;;;;;;;;;5041224;28;20183;-89
2023/05/16 06:50:30;;;;;;;16.47;3.20;;;;;;;;;;5041890;28;20184;-90
2023/05/16 06:52:56;;;;;;;10.80;2.92;;;;;;;;;;5040472;28;20404;-89
2023/05/16 06:55:22;;;;;;;11.38;3.13;;;;;;;;;;5039372;28;20461;-89
2023/05/16 06:57:48;;;;;;;15.90;3.20;;;;;;;;;;5039734;28;20424;-89
2023/05/16 07:00:14;;;;;;;11.97;3.10;;;;;;;;;;5023570;28;20179;-89
2023/05/16 07:02:40;;;;;;;11.87;2.93;;;;;;;;;;5022469;28;20278;-89
2023/05/16 07:05:06;;;;;;;9.33;2.57;;;;;;;;;;5020822;28;20240;-89
2023/05/16 07:07:32;;;;;;;12.15;3.17;;;;;;;;;;5021948;28;20440;-88
2023/05/16 07:09:58;;;;;;;11.65;2.88;;;;;;;;;;5036104;28;20444;-88
2023/05/16 07:12:25;;;;;;;12.40;2.83;;;;;;;;;;5036313;28;20205;-81
2023/05/16 07:14:51;;;;;;;8.97;2.70;;;;;;;;;;5054142;28;20286;-81
2023/05/16 07:17:17;;;;;;;9.87;2.73;;;;;;;;;;5039469;28;20223;-81
2023/05/16 07:19:43;;;;;;;8.70;2.60;;;;;;;;;;5017940;28;20191;-81
2023/05/16 07:22:11;;;;;;;11.63;2.73;;;;;;;;;;5038992;28;20188;-82
2023/05/16 07:24:37;;;;;;;13.00;2.70;;;;;;;;;;5039236;28;20168;-81
2023/05/16 07:27:03;;;;;;;10.97;2.47;;;;;;;;;;5012919;28;20191;-81
2023/05/16 07:29:29;;;;;;;11.30;2.63;;;;;;;;;;5019497;28;20177;-82
2023/05/16 07:31:55;;;;;;;12.47;2.63;;;;;;;;;;5019312;28;20177;-81
2023/05/16 07:34:21;;;;;;;9.97;2.07;;;;;;;;;;5007283;28;20194;-81
2023/05/16 07:36:47;;;;;;;7.77;1.90;;;;;;;;;;5003298;28;20216;-82
2023/05/16 07:39:13;;;;;;;8.90;2.40;;;;;;;;;;5019861;28;20177;-82
2023/05/16 07:41:39;;;;;;;9.00;2.03;;;;;;;;;;5036915;28;20192;-82
2023/05/16 07:44:05;;;;;;;6.97;1.97;;;;;;;;;;5019320;28;20268;-80
2023/05/16 07:46:31;;;;;;;5.93;1.50;;;;;;;;;;5009679;28;20283;-81
2023/05/16 07:48:57;;;;;;;11.07;2.00;;;;;;;;;;5027714;28;20194;-79
2023/05/16 07:51:23;;;;;;;9.83;2.00;;;;;;;;;;5010097;28;20195;-79
2023/05/16 07:53:50;;;;;;;5.67;1.60;;;;;;;;;;5021800;28;20196;-79
2023/05/16 07:56:16;;;;;;;6.87;1.50;;;;;;;;;;5038654;28;20300;-79
2023/05/16 07:58:42;;;;;;;8.90;1.70;;;;;;;;;;5021936;28;20190;-79
2023/05/16 08:01:08;;;;;;;5.20;1.50;;;;;;;;;;5021760;28;20275;-83
2023/05/16 08:03:35;;;;;;;7.40;1.70;;;;;;;;;;5055835;28;20247;-83
2023/05/16 08:06:01;;;;;;;5.63;1.60;;;;;;;;;;5036342;28;20224;-83
2023/05/16 08:08:27;;;;;;;8.17;1.70;;;;;;;;;;5000030;28;20193;-83
2023/05/16 08:10:53;;;;;;;4.73;1.33;;;;;;;;;;5012088;28;20246;-83
2023/05/16 08:13:19;;;;;;;5.60;1.57;;;;;;;;;;5026941;28;20187;-83
2023/05/16 08:15:45;;;;;;;4.57;1.57;;;;;;;;;;5018672;28;20212;-83
2023/05/16 08:18:15;;;;;;;5.80;1.73;;;;;;;;;;5038240;28;20176;-83
2023/05/16 08:20:41;;;;;;;6.00;1.40;;;;;;;;;;5038313;28;20226;-82
2023/05/16 08:23:07;;;;;;;5.27;1.57;;;;;;;;;;5038278;28;20176;-81
2023/05/16 08:25:34;;;;;;;5.60;1.33;;;;;;;;;;5037479;28;20230;-81
2023/05/16 08:28:02;;;;;;;8.17;1.60;;;;;;;;;;5021681;28;20191;-83
2023/05/16 08:30:29;;;;;;;4.43;1.40;;;;;;;;;;5021868;28;20187;-83
2023/05/16 08:32:55;;;;;;;3.07;1.37;;;;;;;;;;5021663;28;20180;-83
2023/05/16 08:35:21;;;;;;;4.40;1.43;;;;;;;;;;5038838;28;20215;-88
2023/05/16 08:37:47;;;;;;;3.00;1.17;;;;;;;;;;5021441;28;20180;-88
2023/05/16 08:40:14;;;;;;;4.90;1.13;;;;;;;;;;5021805;28;20302;-88
2023/05/16 08:42:40;;;;;;;2.97;1.00;;;;;;;;;;5038856;28;20199;-89
2023/05/16 08:45:07;;;;;;;3.97;1.20;;;;;;;;;;5021797;28;20188;-88
2023/05/16 08:47:35;;;;;;;3.33;1.10;;;;;;;;;;5026943;28;20196;-87
2023/05/16 08:50:03;;;;;;;3.93;1.30;;;;;;;;;;5018066;28;20181;-88
2023/05/16 08:52:30;;;;;;;4.60;1.30;;;;;;;;;;5017831;28;20305;-88
2023/05/16 08:54:57;;;;;;;2.97;1.03;;;;;;;;;;5017992;28;20204;-88
2023/05/16 08:57:23;;;;;;;1.60;1.10;;;;;;;;;;5018994;28;20271;-88
2023/05/16 08:59:53;;;;;;;2.67;1.30;;;;;;;;;;4997876;28;20196;-88
2023/05/16 09:02:19;;;;;;;3.85;1.52;;;;;;;;;;4997860;28;20442;-89
2023/05/16 09:04:46;;;;;;;2.90;1.13;;;;;;;;;;4998070;28;20244;-88
2023/05/16 09:07:12;;;;;;;4.10;1.27;;;;;;;;;;5015271;28;20283;-83
2023/05/16 09:09:38;;;;;;;4.10;1.40;;;;;;;;;;5016820;28;20402;-82
2023/05/16 09:12:04;;;;;;;3.47;1.10;;;;;;;;;;5017745;28;20227;-82
2023/05/16 09:14:30;;;;;;;2.90;1.27;;;;;;;;;;5017624;28;20255;-82
2023/05/16 09:17:04;;;;;;;4.43;1.40;;;;;;;;;;5017095;28;20271;-82
2023/05/16 09:19:40;;;;;;;3.97;1.50;;;;;;;;;;5017105;28;20416;-82
2023/05/16 09:22:09;;;;;;;3.15;1.50;;;;;;;;;;5016005;28;20505;-83
2023/05/16 09:24:38;;;;;;;4.27;1.30;;;;;;;;;;5017231;28;20168;-79
2023/05/16 09:27:11;;;;;;;8.77;1.23;;;;;;;;;;5000673;28;20207;-78
2023/05/16 09:29:40;;;;;;;3.83;1.17;;;;;;;;;;5016678;28;20180;-80
2023/05/16 09:32:13;;;;;;;4.37;1.10;;;;;;;;;;5025579;28;20179;-79
2023/05/16 09:34:48;;;;;;;2.30;1.00;;;;;;;;;;5026128;28;20215;-80
2023/05/16 09:37:20;;;;;;;2.27;1.10;;;;;;;;;;5025053;28;20233;-80
2023/05/16 09:39:47;;;;;;;3.00;1.00;;;;;;;;;;5013879;28;20189;-80
2023/05/16 09:42:14;;;;;;;3.13;1.63;;;;;;;;;;5019554;28;20187;-82
2023/05/16 09:44:41;;;;;;;3.67;1.20;;;;;;;;;;5030889;23;20469;-83
2023/05/16 09:47:07;;;;;;;5.43;1.50;;;;;;;;;;5032737;28;20425;-83
2023/05/16 09:49:33;;;;;;;3.90;1.40;;;;;;;;;;5018538;28;20499;-83
2023/05/16 09:52:03;;;;;;;4.53;1.70;;;;;;;;;;5019183;28;20451;-83
2023/05/16 09:54:33;;;;;;;4.28;1.73;;;;;;;;;;5017486;28;20431;-84
2023/05/16 09:56:59;;;;;;;2.93;1.37;;;;;;;;;;5035978;28;20204;-84
2023/05/16 09:59:25;;;;;;;5.47;1.40;;;;;;;;;;5030411;28;20214;-81
2023/05/16 10:01:53;;;;;;;5.60;1.40;;;;;;;;;;5053616;28;20325;-81
2023/05/16 10:04:19;;;;;;;6.97;1.63;;;;;;;;;;5035668;28;20176;-80
2023/05/16 10:06:45;;;;;;;3.37;1.40;;;;;;;;;;5035788;28;20191;-81
2023/05/16 10:09:12;;;;;;;4.57;1.53;;;;;;;;;;5035871;28;20180;-81
2023/05/16 10:11:41;;;;;;;4.87;1.63;;;;;;;;;;5035214;28;20194;-81
2023/05/16 10:14:09;;;;;;;3.97;1.60;;;;;;;;;;5035918;28;20203;-84
2023/05/16 10:16:35;;;;;;;3.67;1.50;;;;;;;;;;5034931;28;20330;-84
2023/05/16 10:19:02;;;;;;;3.80;1.60;;;;;;;;;;5036458;28;20309;-84
2023/05/16 10:21:29;;;;;;;3.03;1.30;;;;;;;;;;5035950;28;20172;-84
2023/05/16 10:23:57;;;;;;;4.07;1.40;;;;;;;;;;5035357;28;20408;-83
2023/05/16 10:26:24;;;;;;;3.30;1.50;;;;;;;;;;5030243;28;20454;-84
2023/05/16 10:28:53;;;;;;;4.75;1.55;;;;;;;;;;5046651;28;20474;-83
2023/05/16 10:31:20;;;;;;;3.97;1.63;;;;;;;;;;5034783;28;20491;-84
2023/05/16 10:33:47;;;;;;;5.83;1.57;;;;;;;;;;5018621;28;20183;-83
2023/05/16 10:36:14;;;;;;;4.93;1.40;;;;;;;;;;5034026;28;20216;-82
2023/05/16 10:38:40;;;;;;;3.07;1.20;;;;;;;;;;5054037;28;20172;-82
2023/05/16 10:41:07;;;;;;;3.63;1.30;;;;;;;;;;5035885;28;20217;-82
2023/05/16 10:43:33;;;;;;;4.43;1.50;;;;;;;;;;5033286;28;20211;-82
2023/05/16 10:46:02;;;;;;;5.03;1.60;;;;;;;;;;5031213;28;20220;-82
2023/05/16 10:48:29;;;;;;;4.00;1.60;;;;;;;;;;5017678;28;20208;-79
2023/05/16 10:50:55;;;;;;;4.07;1.50;;;;;;;;;;5044554;28;20261;-79
2023/05/16 10:53:22;;;;;;;4.23;1.50;;;;;;;;;;5035271;28;20340;-80
2023/05/16 10:55:52;;;;;;;5.18;1.60;;;;;;;;;;5052314;28;20435;-79
2023/05/16 10:58:23;;;;;;;4.25;1.55;;;;;;;;;;5033993;28;20420;-79
2023/05/16 11:00:49;;;;;;;5.22;1.70;;;;;;;;;;5033976;28;20431;-79
2023/05/16 11:03:24;;;;;;;3.40;1.30;;;;;;;;;;5022474;28;20180;-80
2023/05/16 11:05:52;;;;;;;3.33;1.33;;;;;;;;;;5057023;28;20226;-82
2023/05/16 11:08:19;;;;;;;4.93;1.37;;;;;;;;;;5039046;28;20239;-83
2023/05/16 11:10:45;;;;;;;5.30;1.30;;;;;;;;;;5039493;28;20203;-83
2023/05/16 11:13:11;;;;;;;5.90;1.50;;;;;;;;;;5055867;28;20187;-83
2023/05/16 11:15:37;;;;;;;4.03;1.60;;;;;;;;;;5022183;28;20464;-82
2023/05/16 11:18:07;;;;;;;4.00;1.43;;;;;;;;;;5022599;28;20205;-82
2023/05/16 11:20:34;;;;;;;5.30;1.67;;;;;;;;;;5038944;28;20168;-88
2023/05/16 11:23:16;;;;;;;6.13;1.50;;;;;;;;;;5039678;28;20172;-89
2023/05/16 11:25:44;;;;;;;5.20;1.40;;;;;;;;;;5056917;28;20191;-88
2023/05/16 11:28:12;;;;;;;2.90;1.67;;;;;;;;;;5039713;28;20184;-88
2023/05/16 11:30:44;;;;;;;4.57;1.40;;;;;;;;;;5038726;28;20191;-88
2023/05/16 11:33:13;;;;;;;3.83;1.40;;;;;;;;;;5039153;28;20195;-88
2023/05/16 11:35:39;;;;;;;2.97;1.50;;;;;;;;;;5038835;28;20214;-88
2023/05/16 11:38:05;;;;;;;2.77;1.40;;;;;;;;;;5039315;28;20226;-88
2023/05/16 11:40:31;;;;;;;7.73;1.60;;;;;;;;;;5022816;28;20184;-88
2023/05/16 11:43:02;;;;;;;4.80;1.70;;;;;;;;;;5028185;28;20271;-89
2023/05/16 11:45:28;;;;;;;2.83;1.40;;;;;;;;;;5067264;28;20251;-88
2023/05/16 11:47:54;;;;;;;4.50;1.50;;;;;;;;;;5030066;28;20188;-87
2023/05/16 11:50:22;;;;;;;4.67;1.80;;;;;;;;;;5044993;28;20278;-88
2023/05/16 11:52:57;;;;;;;3.37;1.37;;;;;;;;;;5044777;28;20211;-88
2023/05/16 11:55:26;;;;;;;5.53;1.63;;;;;;;;;;5039747;28;20210;-81
2023/05/16 11:57:53;;;;;;;3.37;1.80;;;;;;;;;;5038264;28;20180;-80
2023/05/16 12:00:20;;;;;;;4.67;1.73;;;;;;;;;;5041773;28;20203;-81
2023/05/16 12:02:46;;;;;;;6.67;1.80;;;;;;;;;;5056457;28;20182;-80
2023/05/16 12:05:13;;;;;;;4.50;1.67;;;;;;;;;;5022045;28;20223;-80
2023/05/16 12:07:39;;;;;;;3.90;1.60;;;;;;;;;;5037337;28;20190;-81
2023/05/16 12:10:09;;;;;;;3.00;1.83;;;;;;;;;;5037802;28;20193;-80
2023/05/16 12:12:36;;;;;;;3.37;1.47;;;;;;;;;;5020524;28;20287;-80
2023/05/16 12:15:03;;;;;;;2.77;1.50;;;;;;;;;;5054805;28;20203;-79
2023/05/16 12:17:29;;;;;;;3.40;1.70;;;;;;;;;;5051969;28;20171;-80
2023/05/16 12:19:56;;;;;;;4.80;1.73;;;;;;;;;;5025325;28;20179;-80
2023/05/16 12:22:24;;;;;;;5.50;1.83;;;;;;;;;;5037793;28;20176;-80
2023/05/16 12:24:51;;;;;;;4.70;1.70;;;;;;;;;;5037769;28;20247;-80
2023/05/16 12:27:25;;;;;;;2.23;1.53;;;;;;;;;;5022043;28;20200;-83
2023/05/16 12:29:51;;;;;;;5.70;2.00;;;;;;;;;;5055444;28;20176;-83
2023/05/16 12:32:21;;;;;;;4.20;2.00;;;;;;;;;;5037777;28;20179;-83
2023/05/16 12:34:50;;;;;;;7.00;1.90;;;;;;;;;;5016147;28;20173;-83
2023/05/16 12:37:17;;;;;;;4.70;1.80;;;;;;;;;;5018112;28;20235;-83
2023/05/16 12:39:45;;;;;;;5.10;1.73;;;;;;;;;;5018922;28;20181;-83
2023/05/16 12:42:12;;;;;;;4.90;2.17;;;;;;;;;;5037220;28;20202;-83
2023/05/16 12:44:38;;;;;;;4.83;1.83;;;;;;;;;;5036520;28;20180;-83
2023/05/16 12:47:11;;;;;;;3.13;1.60;;;;;;;;;;5037340;28;20186;-82
2023/05/16 12:49:37;;;;;;;6.87;1.73;;;;;;;;;;5054766;28;20172;-82
2023/05/16 12:52:04;;;;;;;4.63;1.97;;;;;;;;;;5033635;28;20184;-81
2023/05/16 12:54:30;;;;;;;5.60;1.87;;;;;;;;;;5017900;28;20188;-81
2023/05/16 12:56:56;;;;;;;5.17;2.00;;;;;;;;;;5019415;28;20211;-81
2023/05/16 12:59:22;;;;;;;3.60;1.73;;;;;;;;;;5018615;28;20175;-82
2023/05/16 13:01:48;;;;;;;6.00;1.90;;;;;;;;;;5017260;28;20169;-82
2023/05/16 13:04:17;;;;;;;6.90;1.80;;;;;;;;;;5002260;28;20217;-81
2023/05/16 13:06:43;;;;;;;4.23;1.60;;;;;;;;;;5018544;28;20185;-82
2023/05/16 13:09:10;;;;;;;5.77;1.67;;;;;;;;;;5037156;28;20191;-81
2023/05/16 13:11:36;;;;;;;5.03;1.73;;;;;;;;;;5020016;28;20176;-82
2023/05/16 13:14:03;;;;;;;4.60;1.70;;;;;;;;;;5037067;28;20179;-82
2023/05/16 13:16:29;;;;;;;5.27;1.80;;;;;;;;;;5020611;28;20250;-82
2023/05/16 13:18:55;;;;;;;6.53;1.73;;;;;;;;;;5037147;28;20176;-81
2023/05/16 13:21:21;;;;;;;6.97;1.47;;;;;;;;;;5017576;28;20188;-81
2023/05/16 13:23:47;;;;;;;5.17;1.70;;;;;;;;;;5001172;28;20279;-81
2023/05/16 13:26:13;;;;;;;4.60;1.67;;;;;;;;;;5001908;28;20220;-81
2023/05/16 13:28:40;;;;;;;6.30;1.90;;;;;;;;;;5017103;28;20206;-81
2023/05/16 13:31:06;;;;;;;5.37;1.40;;;;;;;;;;5000878;28;20228;-81
2023/05/16 13:33:32;;;;;;;5.17;1.70;;;;;;;;;;5001016;28;20275;-81
2023/05/16 13:35:59;;;;;;;7.00;1.60;;;;;;;;;;5017547;28;20208;-81
2023/05/16 13:38:25;;;;;;;4.47;1.63;;;;;;;;;;5001121;28;20207;-81
2023/05/16 13:40:51;;;;;;;4.03;1.73;;;;;;;;;;5017229;28;20181;-81
2023/05/16 13:43:17;;;;;;;4.13;1.57;;;;;;;;;;5001027;28;20229;-81
2023/05/16 13:45:43;;;;;;;4.67;1.83;;;;;;;;;;5000779;28;20326;-81
2023/05/16 13:48:09;;;;;;;3.70;1.77;;;;;;;;;;5004592;28;20215;-81
2023/05/16 13:50:35;;;;;;;4.63;1.70;;;;;;;;;;5037153;28;20187;-87
2023/05/16 13:53:01;;;;;;;4.83;1.77;;;;;;;;;;5015357;28;20195;-88
2023/05/16 13:55:27;;;;;;;5.80;1.67;;;;;;;;;;5040379;28;20211;-88
2023/05/16 13:57:53;;;;;;;6.83;1.80;;;;;;;;;;5020338;28;20283;-89
2023/05/16 14:00:19;;;;;;;7.50;1.93;;;;;;;;;;5020583;28;20215;-89
2023/05/16 14:02:45;;;;;;;4.23;1.90;;;;;;;;;;5037020;28;20207;-89
2023/05/16 14:05:11;;;;;;;4.43;1.87;;;;;;;;;;5036213;28;20188;-88
2023/05/16 14:07:37;;;;;;;5.13;1.80;;;;;;;;;;5032989;28;20181;-88
2023/05/16 14:10:05;;;;;;;5.97;1.90;;;;;;;;;;5031972;28;20184;-88
2023/05/16 14:12:31;;;;;;;7.27;1.80;;;;;;;;;;5037416;28;20176;-89
2023/05/16 14:15:04;;;;;;;7.07;1.97;;;;;;;;;;5037214;28;20206;-89
2023/05/16 14:17:30;;;;;;;7.23;2.00;;;;;;;;;;5036875;28;20184;-89
2023/05/16 14:19:56;;;;;;;9.83;2.43;;;;;;;;;;5038678;28;20187;-90
2023/05/16 14:22:22;;;;;;;3.10;1.80;;;;;;;;;;5025713;28;20192;-89
2023/05/16 14:24:48;;;;;;;7.23;1.97;;;;;;;;;;5021424;28;20186;-83
2023/05/16 14:27:15;;;;;;;5.23;1.90;;;;;;;;;;5020192;28;20184;-83
2023/05/16 14:29:41;;;;;;;4.73;1.77;;;;;;;;;;5015663;28;20187;-83
2023/05/16 14:32:07;;;;;;;6.60;2.10;;;;;;;;;;5034001;28;20431;-83
2023/05/16 14:34:33;;;;;;;4.68;2.10;;;;;;;;;;5015777;28;20449;-82